Aérodrome :
LOGIN :

S'inscrire | Disclaimer

   EN    FR    IT 

 










Légende :    VFR   VFR Marginal   IFR   IFR Intensif   IFR Très Intensif
Visi : 
Plafond : 
>= 8 km
>= 3000ft
5 à 8 km
1000 à 3000 ft
1500m à 5 km
500 à 1000 ft
800 à 1500m
200 à 500 ft
< 800m
< 200 ft
Symboles :   Orages  Brouillard  Fortes neiges  Fortes précipitations  Vent > 20 kt
SIGMETs :   Divers  Orages  Givrage  Turbulence  Onde Orograph.  Cendres Volcan.







- Altitude de l'aérodrome : 375 ft
- Code IATA : MST


EHBK - Maastricht Aachen

DERNIER METAR :
  • 221955Z AUTO 24003KT 190V290 8000 BKN019 OVC023 15/14 Q1023 TEMPO 4000 BR

METARs EXPIRÉS :
  • 221925Z AUTO 22005KT 6000 SCT022 14/14 Q1022 TEMPO 4000 BR
  • 221855Z AUTO 20003KT 4300 BR FEW015CB 14/13 Q1022 NOSIG
  • 221825Z AUTO 21004KT 6000 FEW015CB 14/14 Q1022 NOSIG
  • 221755Z AUTO 21005KT 6000 NSC 14/14 Q1021 REDZ NOSIG
  • 221725Z AUTO 24003KT 9999 -RA NSC 15/14 Q1021 REDZ NOSIG

TAF AMD TAF EHBK
Valide du 22 à 18h jusqu'au 24 à 00h UTC


221843Z 2218/2324 28004KT 4000 BR SCT030
TEMPO 2218/2307 2000
PROB40 2301/2307 0300 FG OVC000
BECMG 2308/2311 9999 NSW SCT020
Pas de NOTAMs connus pour ce terrain.



MET'MAP, la Météo Aéronautique d'un coup d'oeil ! - Copyright ORBIFLY Décembre 2007 - Disclaimer

ORBIFLY MET'MAP TEAM :

Programmation & Développement : Alexandra Zaïnal
Conception & Développement : Baudouin d'Aumeries
Co-Programmation & Développement : Marc-Olivier Méhu
Soutien technique & logistique : Manuel Goepfert

Contact : metmap@orbifly.com




SOURCES & CREDITS :

   NOAA